Ana Sayfa
METAR-TAF:

METAR-TAF

Havaalanları :

Baf Uluslararası Havalimanı

Baf, Kıbrıs

Enlem: 34-43N, Boylam: 032-29E, yükseklik: 11 m

Güncel hava durumu gözlemi

Rapor saat 15:30 UTC de 20 dakika önce yapıldı.
Rüzgar batıdan 11 kt
Sıcaklık 25°C
Nem 69%
Basınç 1008 hPa
Görüş mesafesi 10 km veya daha fazla
1800 ft yükseklikte parçalı bulutlu

METAR: LCPH 261530Z 28011KT 9999 SCT018 25/19 Q1008

Saat: 18:50 (15:50 UTC)

Tahmin

Rapor saat 11:30 UTC de 4 saat ve 20 dakika önce yapıldı.
Ayın 26'si saat 12 UTC'den ayın 27'si saat 12 UTC'ye kadar geçerli Tahmin
Rüzgar batıdan 12 kt
Görüş mesafesi 10 km veya daha fazla
2000 ft yükseklikte az bulutlu
Dönüşüyor
ayın 26'si saat 17 UTC'den ayın 26'si saat 21 UTC'ye kadar
Rüzgar kuzey/kuzeydoğudan 6 kt
Dönüşüyor
ayın 27'si saat 07 UTC'den ayın 27'si saat 11 UTC'ye kadar
Rüzgar batıdan 10 kt

TAF: LCPH 261130Z 2612/2712 28012KT 9999 FEW020 BECMG 2617/2621 03006KT BECMG 2707/2711 28010KT

4.000'den fazla havaalanı için hava durumu gözlemleri ve tahminleri (METAR ve TAF raporları).

Kullanılabilir istasyonlar harita üzerinde sarı ve kırmızı noktalarla gösterilir.

İstasyonun adını görmek için fareyi noktanın üzerinde gezdirin.

Sonrasında hava gözlem ve tahminlerini görmek için tıklayın.

Haritayı değiştirmek için: yaklaştırmak için siyah artı işaretli yeşil düğmeye ve uzaklaştırmak için de eksi işaretli düğmeye hızla tıklayın; bitişik haritalar için yeşil okları kullanın.


METAR-TAF: